createdAt,value
2022-11-26T00:02:36.804Z,41.53
2022-11-26T00:06:44.543Z,29.73
2022-11-26T00:10:48.532Z,34.85
2022-11-26T00:14:50.735Z,44.13
2022-11-26T00:18:52.177Z,46.33
2022-11-26T00:22:56.841Z,38.90
2022-11-26T00:27:00.216Z,42.95
2022-11-26T00:31:05.059Z,44.88
2022-11-26T00:35:06.867Z,43.38
2022-11-26T00:39:26.368Z,42.53
2022-11-26T00:43:28.162Z,39.67
2022-11-26T00:47:29.632Z,42.05
2022-11-26T00:51:31.212Z,38.20
2022-11-26T00:55:38.743Z,49.67
2022-11-26T00:59:40.156Z,38.50
2022-11-26T01:03:42.890Z,42.30
2022-11-26T01:07:45.479Z,44.92
2022-11-26T01:11:52.336Z,40.05
2022-11-26T01:15:57.147Z,58.97
2022-11-26T01:19:58.591Z,46.67
2022-11-26T01:24:00.025Z,50.47
2022-11-26T01:28:01.489Z,41.47
2022-11-26T01:32:03.077Z,51.50
2022-11-26T01:36:17.996Z,45.83
2022-11-26T01:40:32.639Z,45.25
2022-11-26T01:44:36.961Z,47.30
2022-11-26T01:48:38.767Z,37.85
2022-11-26T01:52:40.377Z,39.72
2022-11-26T01:56:47.741Z,40.20
2022-11-26T02:00:51.253Z,43.63
2022-11-26T02:05:11.790Z,38.92
2022-11-26T02:09:13.831Z,47.47
2022-11-26T02:13:15.306Z,44.03
2022-11-26T02:17:49.286Z,37.88
2022-11-26T02:21:59.327Z,46.72
2022-11-26T02:26:38.145Z,49.60
2022-11-26T02:30:46.071Z,55.42
2022-11-26T02:35:09.116Z,55.78
2022-11-26T02:39:17.656Z,56.10
2022-11-26T02:43:20.228Z,62.45
2022-11-26T02:47:24.755Z,54.75
2022-11-26T02:51:31.964Z,69.57
2022-11-26T02:59:42.786Z,58.97
2022-11-26T03:03:48.813Z,79.97
2022-11-26T03:07:52.851Z,61.42
2022-11-26T03:11:54.379Z,65.97
2022-11-26T03:15:55.912Z,82.25
2022-11-26T03:19:57.511Z,69.75
2022-11-26T03:23:59.044Z,64.93
2022-11-26T03:28:01.111Z,68.47
2022-11-26T03:32:02.648Z,61.72
2022-11-26T03:36:04.552Z,69.93
2022-11-26T03:40:07.348Z,77.28
2022-11-26T03:44:08.857Z,66.00
2022-11-26T03:48:10.393Z,71.18
2022-11-26T03:52:12.166Z,70.70
2022-11-26T03:56:13.703Z,72.70
2022-11-26T04:00:15.548Z,65.05
2022-11-26T04:04:17.089Z,70.78
2022-11-26T04:08:18.576Z,58.65
2022-11-26T04:12:20.005Z,55.55
2022-11-26T04:16:22.067Z,66.50
2022-11-26T04:20:23.560Z,70.05
2022-11-26T04:24:25.093Z,64.65
2022-11-26T04:28:26.583Z,64.45
2022-11-26T04:32:28.115Z,45.10
2022-11-26T04:36:29.667Z,70.63
2022-11-26T04:40:31.617Z,66.85
2022-11-26T04:44:33.062Z,78.40
2022-11-26T04:48:34.619Z,60.80
2022-11-26T04:52:36.451Z,71.50
2022-11-26T04:56:37.899Z,56.38
2022-11-26T05:00:40.269Z,61.28
2022-11-26T05:04:41.852Z,54.75
2022-11-26T05:08:43.390Z,61.58
2022-11-26T05:12:44.884Z,45.78
2022-11-26T05:16:46.453Z,46.42
2022-11-26T05:20:48.123Z,36.20
2022-11-26T05:24:49.641Z,54.88
2022-11-26T05:28:51.121Z,47.72
2022-11-26T05:32:52.595Z,62.78
2022-11-26T05:36:54.186Z,44.33
2022-11-26T05:40:55.825Z,41.97
2022-11-26T05:44:57.438Z,38.58
2022-11-26T05:48:58.928Z,43.92
2022-11-26T05:53:00.612Z,48.95
2022-11-26T05:57:02.062Z,33.20
2022-11-26T06:01:09.033Z,49.65
2022-11-26T06:05:11.546Z,51.38
2022-11-26T06:09:13.781Z,41.05
2022-11-26T06:13:15.409Z,38.63
2022-11-26T06:17:16.920Z,44.05
2022-11-26T06:21:18.482Z,31.33
2022-11-26T06:25:20.075Z,38.60
2022-11-26T06:29:27.558Z,46.45
2022-11-26T06:33:29.570Z,32.95
2022-11-26T06:37:31.983Z,17.10
2022-11-26T06:41:33.478Z,37.72
2022-11-26T06:45:35.237Z,24.70
2022-11-26T06:49:37.199Z,28.00
2022-11-26T06:53:39.144Z,33.40
2022-11-26T06:57:42.251Z,27.45
2022-11-26T07:01:46.701Z,28.77
2022-11-26T07:05:48.254Z,26.60
2022-11-26T07:09:49.795Z,30.42
2022-11-26T07:13:52.317Z,24.33
2022-11-26T07:17:58.079Z,27.55
2022-11-26T07:22:00.708Z,28.38
2022-11-26T07:26:03.366Z,37.10
2022-11-26T07:30:09.520Z,32.17
2022-11-26T07:34:10.982Z,38.85
2022-11-26T07:38:12.556Z,29.92
2022-11-26T07:42:14.595Z,35.92
2022-11-26T07:46:20.137Z,30.10
2022-11-26T07:50:23.602Z,26.45
2022-11-26T07:54:25.173Z,26.40
2022-11-26T07:58:29.411Z,34.45
2022-11-26T08:02:31.036Z,32.60
2022-11-26T08:06:33.557Z,32.67
2022-11-26T08:10:35.167Z,31.02
2022-11-26T08:14:37.070Z,22.48
2022-11-26T08:18:39.464Z,38.60
2022-11-26T08:22:41.521Z,18.80
2022-11-26T08:26:44.786Z,26.80
2022-11-26T08:30:47.745Z,16.40
2022-11-26T08:34:49.242Z,18.80
2022-11-26T08:38:50.790Z,22.65
2022-11-26T08:42:52.317Z,29.45
2022-11-26T08:46:53.809Z,21.85
2022-11-26T08:51:03.863Z,22.65
2022-11-26T08:55:05.621Z,23.35
2022-11-26T08:59:07.089Z,27.98
2022-11-26T09:03:08.700Z,22.48
2022-11-26T09:07:10.283Z,21.10
2022-11-26T09:11:12.191Z,21.63
2022-11-26T09:15:13.698Z,20.63
2022-11-26T09:19:15.686Z,16.25
2022-11-26T09:23:17.109Z,16.58
2022-11-26T09:27:18.573Z,20.48
2022-11-26T09:31:20.637Z,18.73
2022-11-26T09:35:22.173Z,23.65
2022-11-26T09:39:23.660Z,25.05
2022-11-26T09:43:53.445Z,21.67
2022-11-26T09:47:55.146Z,22.97
2022-11-26T09:51:59.360Z,24.00
2022-11-26T09:56:01.546Z,21.35
2022-11-26T10:00:04.893Z,22.13
2022-11-26T10:04:18.085Z,20.85
2022-11-26T10:08:56.457Z,17.75
2022-11-26T10:13:18.430Z,19.85
2022-11-26T10:17:36.370Z,14.40
2022-11-26T10:26:15.417Z,12.93
2022-11-26T10:30:23.340Z,13.38
2022-11-26T10:34:39.497Z,19.83
2022-11-26T10:38:41.195Z,16.90
2022-11-26T10:42:56.066Z,19.70
2022-11-26T10:46:58.797Z,16.88
2022-11-26T10:51:06.079Z,20.17
2022-11-26T10:55:26.878Z,26.30
2022-11-26T10:59:46.093Z,17.30
2022-11-26T11:04:08.860Z,23.33
2022-11-26T11:08:32.468Z,28.30
2022-11-26T11:12:39.005Z,20.30
2022-11-26T11:16:45.967Z,21.95
2022-11-26T11:20:56.321Z,22.98
2022-11-26T11:24:59.826Z,18.27
2022-11-26T11:29:01.301Z,19.65
2022-11-26T11:33:14.841Z,30.73
2022-11-26T11:37:21.188Z,15.43
2022-11-26T11:41:48.333Z,12.88
2022-11-26T11:46:02.892Z,19.08
2022-11-26T11:50:13.732Z,19.13
2022-11-26T11:54:31.320Z,17.75
2022-11-26T11:58:44.654Z,24.83
2022-11-26T12:03:12.247Z,21.35
2022-11-26T12:07:22.516Z,11.77
2022-11-26T12:11:48.846Z,15.45
2022-11-26T12:16:00.949Z,23.05
2022-11-26T12:20:13.947Z,16.13
2022-11-26T12:24:29.164Z,16.27
2022-11-26T12:28:58.290Z,19.67
2022-11-26T12:33:05.961Z,15.05
2022-11-26T12:37:19.426Z,12.30
2022-11-26T12:41:32.142Z,14.82
2022-11-26T12:45:58.524Z,15.98
2022-11-26T12:50:21.060Z,16.83
2022-11-26T12:54:39.320Z,13.05
2022-11-26T12:58:54.417Z,15.57
2022-11-26T13:02:56.153Z,18.60
2022-11-26T13:07:00.228Z,21.73
2022-11-26T13:11:26.189Z,15.85
2022-11-26T13:15:35.536Z,20.42
2022-11-26T13:19:47.561Z,20.52
2022-11-26T13:24:20.789Z,22.77
2022-11-26T13:28:44.151Z,18.20
2022-11-26T13:33:16.474Z,19.92
2022-11-26T13:37:27.022Z,16.55
2022-11-26T13:41:40.494Z,20.05
2022-11-26T13:45:59.323Z,15.43
2022-11-26T13:50:12.501Z,23.95
2022-11-26T13:54:22.594Z,20.30
2022-11-26T13:58:30.386Z,24.20
2022-11-26T14:02:36.531Z,20.02
2022-11-26T14:06:58.621Z,23.65
2022-11-26T14:11:00.090Z,24.23
2022-11-26T14:15:01.489Z,22.02
2022-11-26T14:19:08.968Z,20.13
2022-11-26T14:23:41.554Z,14.20
2022-11-26T14:27:55.388Z,18.42
2022-11-26T14:31:56.911Z,13.27
2022-11-26T14:35:59.258Z,15.63
2022-11-26T14:40:10.498Z,15.85
2022-11-26T14:44:14.160Z,19.33
2022-11-26T14:48:27.748Z,51.75
2022-11-26T14:52:34.596Z,20.85
2022-11-26T14:56:40.892Z,14.48
2022-11-26T15:01:02.134Z,22.88
2022-11-26T15:05:14.417Z,26.85
2022-11-26T15:09:19.087Z,20.58
2022-11-26T15:13:31.631Z,19.40
2022-11-26T15:17:34.120Z,23.38
2022-11-26T15:21:35.691Z,25.05
2022-11-26T15:25:38.204Z,25.42
2022-11-26T15:29:41.420Z,19.90
2022-11-26T15:33:44.205Z,16.08
2022-11-26T15:37:45.665Z,16.33
2022-11-26T15:41:47.099Z,15.73
2022-11-26T15:45:49.675Z,19.42
2022-11-26T15:49:58.727Z,18.33
2022-11-26T15:54:02.485Z,21.37
2022-11-26T15:58:11.505Z,19.38
2022-11-26T16:02:21.830Z,21.93
2022-11-26T16:07:08.909Z,16.00
2022-11-26T16:11:20.828Z,16.85
2022-11-26T16:15:27.259Z,20.90
2022-11-26T16:19:30.108Z,21.73
2022-11-26T16:23:31.595Z,15.82
2022-11-26T16:27:33.731Z,22.02
2022-11-26T16:31:35.125Z,29.73
2022-11-26T16:35:45.807Z,20.13
2022-11-26T16:39:49.713Z,21.67
2022-11-26T16:43:51.378Z,27.33
2022-11-26T16:47:55.232Z,20.50
2022-11-26T16:51:56.677Z,18.75
2022-11-26T16:55:58.429Z,30.67
2022-11-26T17:00:03.116Z,22.80
2022-11-26T17:04:04.580Z,23.90
2022-11-26T17:08:09.454Z,37.63
2022-11-26T17:12:19.225Z,34.50
2022-11-26T17:16:22.898Z,28.05
2022-11-26T17:20:25.532Z,28.23
2022-11-26T17:24:31.258Z,27.60
2022-11-26T17:28:33.190Z,25.27
2022-11-26T17:32:34.918Z,29.67
2022-11-26T17:36:37.162Z,27.10
2022-11-26T17:40:38.661Z,23.50
2022-11-26T17:44:40.146Z,29.55
2022-11-26T17:48:41.623Z,26.08
2022-11-26T17:52:43.064Z,24.98
2022-11-26T17:56:44.485Z,25.98
2022-11-26T18:00:45.902Z,28.80
2022-11-26T18:04:47.528Z,25.83
2022-11-26T18:08:49.037Z,36.78
2022-11-26T18:12:53.302Z,28.88
2022-11-26T18:16:55.203Z,23.58
2022-11-26T18:20:56.772Z,27.30
2022-11-26T18:24:58.354Z,30.02
2022-11-26T18:29:01.759Z,31.42
2022-11-26T18:33:03.212Z,33.75
2022-11-26T18:37:04.678Z,22.55
2022-11-26T18:41:06.760Z,19.33
2022-11-26T18:45:10.635Z,24.00
2022-11-26T18:49:12.055Z,18.17
2022-11-26T18:53:13.673Z,28.90
2022-11-26T18:57:15.059Z,33.20
2022-11-26T19:01:26.026Z,20.50
2022-11-26T19:05:27.516Z,30.52
2022-11-26T19:09:29.061Z,19.50
2022-11-26T19:13:30.521Z,20.00
2022-11-26T19:17:32.044Z,18.25
2022-11-26T19:21:34.363Z,24.80
2022-11-26T19:25:35.826Z,21.30
2022-11-26T19:29:37.355Z,21.45
2022-11-26T19:33:39.795Z,21.83
2022-11-26T19:37:41.205Z,19.33
2022-11-26T19:41:42.804Z,21.83
2022-11-26T19:45:44.289Z,15.70
2022-11-26T19:49:45.802Z,20.15
2022-11-26T19:53:49.214Z,19.73
2022-11-26T19:57:50.632Z,26.98
2022-11-26T20:01:52.364Z,26.65
2022-11-26T20:05:54.341Z,29.52
2022-11-26T20:09:55.882Z,21.05
2022-11-26T20:13:58.335Z,24.35
2022-11-26T20:17:59.774Z,31.25
2022-11-26T20:22:01.214Z,26.77
2022-11-26T20:26:03.585Z,20.83
2022-11-26T20:30:05.964Z,27.20
2022-11-26T20:34:08.583Z,23.92
2022-11-26T20:38:10.541Z,29.73
2022-11-26T20:42:12.014Z,26.85
2022-11-26T20:46:14.877Z,32.63
2022-11-26T20:50:16.444Z,24.45
2022-11-26T20:54:17.840Z,21.88
2022-11-26T20:58:19.823Z,28.63
2022-11-26T21:02:21.299Z,21.27
2022-11-26T21:06:29.678Z,21.80
2022-11-26T21:10:31.337Z,21.83
2022-11-26T21:14:32.775Z,32.53
2022-11-26T21:18:34.335Z,24.15
2022-11-26T21:22:38.213Z,26.75
2022-11-26T21:26:39.684Z,27.90
2022-11-26T21:30:42.172Z,25.17
2022-11-26T21:34:43.672Z,28.65
2022-11-26T21:38:48.836Z,22.38
2022-11-26T21:42:50.267Z,25.52
2022-11-26T21:46:51.719Z,24.08
2022-11-26T21:50:53.168Z,28.75
2022-11-26T21:54:55.904Z,28.67
2022-11-26T21:59:00.944Z,29.73
2022-11-26T22:03:05.943Z,22.10
2022-11-26T22:07:10.167Z,27.17
2022-11-26T22:11:14.982Z,32.70
2022-11-26T22:15:16.509Z,28.40
2022-11-26T22:19:18.420Z,24.98
2022-11-26T22:23:20.118Z,26.98
2022-11-26T22:27:21.579Z,25.48
2022-11-26T22:31:27.026Z,22.58
2022-11-26T22:35:28.794Z,31.75
2022-11-26T22:39:31.688Z,22.27
2022-11-26T22:43:33.584Z,23.48
2022-11-26T22:47:35.076Z,26.20
2022-11-26T22:51:36.546Z,25.65
2022-11-26T22:55:37.963Z,23.27
2022-11-26T22:59:39.623Z,30.17
2022-11-26T23:03:41.272Z,24.35
2022-11-26T23:07:42.950Z,18.45
2022-11-26T23:11:44.630Z,28.33
2022-11-26T23:15:47.344Z,27.30
2022-11-26T23:19:48.786Z,28.23
2022-11-26T23:23:51.063Z,32.58
2022-11-26T23:27:52.484Z,22.17
2022-11-26T23:31:53.999Z,26.85
2022-11-26T23:35:56.481Z,24.25
2022-11-26T23:39:57.919Z,23.33
2022-11-26T23:43:59.453Z,29.20
2022-11-26T23:48:00.938Z,19.83
2022-11-26T23:52:02.392Z,23.58
2022-11-26T23:56:11.900Z,20.80
